Terminal Aerodrome Forecast
Issued by NWS

Home | Current Version | Previous Version | Text Only | Print | Product List | Glossary On
Versions: 1 2 3 4 5 6 7 8 9 10 11 12
000
FTUS46 KPDT 280500
TAFYKM
TAF
KYKM 280532Z 2806/2906 30007KT P6SM BKN250
     FM280800 30007KT P6SM SCT250
     FM282000 15007KT P6SM SKC
     FM290400 30007KT P6SM SKC=

USA.gov is the U.S. government's official web portal to all federal, state and local government web resources and services.